Time;durP1;ratioP1;P1;durP2;ratioP2;P2;SDS_P1;SDS_P2;PMS_P1;PMS_P2;Temp;Humidity;BMP_temperature;BMP_pressure;BME280_temperature;BME280_humidity;BME280_pressure;Samples;Min_cycle;Max_cycle;Signal;HPM_P1;HPM_P2
2022/02/23 00:01:36;;;;;;;4.15;1.90;;;7.90;73.50;;;7.37;58.60;94906.66;6128230;23;20231;-82
2022/02/23 00:04:04;;;;;;;3.15;1.85;;;7.90;73.50;;;7.39;58.37;94912.53;6129338;23;20652;-82
2022/02/23 00:06:32;;;;;;;3.80;1.90;;;7.90;73.30;;;7.36;58.70;94899.81;6153674;23;20166;-83
2022/02/23 00:08:59;;;;;;;7.45;2.42;;;8.00;73.50;;;7.33;58.48;94903.59;6128763;23;20272;-82
2022/02/23 00:11:26;;;;;;;6.28;2.30;;;8.00;73.40;;;7.40;58.88;94914.16;6104495;23;20252;-82
2022/02/23 00:13:54;;;;;;;4.72;2.00;;;8.00;73.80;;;7.40;58.68;94902.91;6081095;23;20189;-83
2022/02/23 00:16:21;;;;;;;3.83;2.00;;;8.00;73.60;;;7.37;58.48;94901.44;6128604;23;20571;-83
2022/02/23 00:18:49;;;;;;;4.75;2.25;;;8.00;73.50;;;7.39;58.93;94914.34;6104635;23;20264;-82
2022/02/23 00:21:16;;;;;;;4.53;2.17;;;8.00;73.60;;;7.35;58.73;94899.03;6129063;23;20190;-82
2022/02/23 00:23:44;;;;;;;5.40;2.30;;;8.10;73.70;;;7.39;58.96;94903.91;6104632;23;20248;-81
2022/02/23 00:26:13;;;;;;;4.38;2.28;;;8.00;73.90;;;7.41;59.01;94900.13;6080652;23;20197;-81
2022/02/23 00:28:40;;;;;;;6.18;2.45;;;8.10;73.90;;;7.42;58.70;94900.94;6104779;23;20177;-82
2022/02/23 00:31:08;;;;;;;5.10;2.40;;;8.00;73.90;;;7.41;58.73;94910.56;6128951;23;20573;-83
2022/02/23 00:33:35;;;;;;;4.63;2.20;;;8.00;74.00;;;7.34;59.37;94905.22;6104378;23;20181;-83
2022/02/23 00:36:02;;;;;;;5.85;2.42;;;8.00;74.30;;;7.32;59.86;94894.16;6104735;23;20220;-82
2022/02/23 00:38:29;;;;;;;8.48;2.50;;;7.90;74.40;;;7.26;59.36;94892.22;6129258;23;20174;-82
2022/02/23 00:40:57;;;;;;;3.55;2.20;;;8.00;74.50;;;7.19;59.65;94899.13;6103869;23;20659;-81
2022/02/23 00:43:25;;;;;;;4.65;2.10;;;7.90;74.40;;;7.13;59.67;94894.56;6080955;23;20264;-82
2022/02/23 00:45:53;;;;;;;4.70;2.38;;;7.90;74.40;;;7.06;60.23;94894.44;6104893;23;20221;-82
2022/02/23 00:48:20;;;;;;;7.53;2.50;;;7.80;74.40;;;7.03;60.28;94892.16;6104547;23;20217;-81
2022/02/23 00:50:51;;;;;;;5.43;2.10;;;7.80;74.30;;;6.97;60.57;94895.44;6104834;23;20201;-82
2022/02/23 00:53:19;;;;;;;7.85;2.60;;;7.80;74.30;;;6.94;60.49;94894.00;6129179;23;20181;-82
2022/02/23 00:55:46;;;;;;;4.93;2.30;;;7.80;74.60;;;6.92;60.19;94882.13;6104764;23;20197;-82
2022/02/23 00:58:13;;;;;;;3.45;2.17;;;7.70;75.60;;;6.90;60.26;94866.66;6104243;23;20178;-81
2022/02/23 01:00:41;;;;;;;7.53;2.67;;;7.70;74.70;;;6.95;60.75;94887.00;6104404;23;20707;-82
2022/02/23 01:03:08;;;;;;;6.93;2.40;;;7.70;75.40;;;6.93;61.03;94891.56;6104254;23;20200;-82
2022/02/23 01:05:35;;;;;;;3.78;2.42;;;7.70;75.30;;;6.91;60.96;94893.53;6153428;23;20643;-81
2022/02/23 01:08:03;;;;;;;5.55;2.55;;;7.60;75.40;;;6.86;61.45;94881.81;6104239;23;20198;-81
2022/02/23 01:10:31;;;;;;;4.05;2.10;;;7.60;75.60;;;6.88;61.42;94887.69;6128757;23;20672;-82
2022/02/23 01:13:00;;;;;;;4.45;2.35;;;7.60;75.50;;;6.88;61.15;94882.47;6104312;23;20248;-81
2022/02/23 01:15:28;;;;;;;5.32;2.67;;;7.60;75.50;;;6.87;61.29;94890.44;6128342;23;20197;-81
2022/02/23 01:17:57;;;;;;;5.47;2.60;;;7.60;75.90;;;6.84;60.88;94875.16;6105490;23;20166;-81
2022/02/23 01:20:24;;;;;;;4.38;2.40;;;7.60;75.60;;;6.88;61.37;94869.44;6104453;23;20537;-82
2022/02/23 01:22:55;;;;;;;4.50;2.17;;;7.60;75.50;;;6.84;61.09;94862.13;6128146;23;20236;-81
2022/02/23 01:25:24;;;;;;;3.70;2.20;;;7.60;75.50;;;6.93;61.02;94871.50;6105053;23;20200;-82
2022/02/23 01:28:01;;;;;;;4.68;2.40;;;7.70;75.50;;;6.95;61.21;94877.38;6129722;23;20196;-80
2022/02/23 01:30:29;;;;;;;5.45;2.25;;;7.60;75.50;;;6.89;61.92;94852.00;6128922;23;20197;-82
2022/02/23 01:32:56;;;;;;;5.00;2.40;;;7.60;75.60;;;6.96;61.38;94865.16;6103776;23;20260;-80
2022/02/23 01:35:26;;;;;;;5.18;2.38;;;7.60;75.60;;;6.98;61.12;94852.75;6079791;23;20660;-80
2022/02/23 01:37:54;;;;;;;6.47;2.33;;;7.60;75.80;;;6.98;61.36;94863.19;6104121;23;20543;-81
2022/02/23 01:40:23;;;;;;;4.05;2.22;;;7.60;75.90;;;6.96;61.76;94865.97;6079886;23;20236;-81
2022/02/23 01:42:51;;;;;;;3.92;2.42;;;7.60;75.80;;;6.94;61.42;94880.16;6080290;23;20198;-81
2022/02/23 01:45:19;;;;;;;5.90;2.15;;;7.60;76.10;;;6.91;61.14;94883.09;6130083;23;20197;-80
2022/02/23 01:47:46;;;;;;;6.82;2.47;;;7.60;76.40;;;6.83;62.06;94889.16;6106329;23;20173;-80
2022/02/23 01:50:15;;;;;;;7.60;2.50;;;7.60;76.60;;;6.77;62.31;94887.25;6082379;23;20239;-80
2022/02/23 01:52:43;;;;;;;4.35;2.08;;;7.60;77.30;;;6.72;62.68;94874.69;6105618;23;20609;-81
2022/02/23 01:55:11;;;;;;;5.40;2.58;;;7.50;77.50;;;6.66;63.08;94877.97;6105943;23;20221;-80
2022/02/23 01:57:39;;;;;;;3.72;2.10;;;7.50;77.10;;;6.62;63.29;94879.31;6106076;23;20177;-80
2022/02/23 02:00:13;;;;;;;3.85;2.50;;;7.40;77.80;;;6.57;63.58;94869.38;6129588;23;20198;-80
2022/02/23 02:02:40;;;;;;;5.35;2.22;;;7.40;77.90;;;6.56;63.33;94867.75;6105293;23;20186;-80
2022/02/23 02:05:11;;;;;;;4.22;1.90;;;7.40;77.60;;;6.51;63.34;94855.22;6105976;23;20532;-80
2022/02/23 02:07:38;;;;;;;5.07;2.13;;;7.40;77.70;;;6.59;63.57;94864.78;6105167;23;20569;-79
2022/02/23 02:10:06;;;;;;;5.40;1.88;;;7.30;77.70;;;6.59;63.21;94864.00;6129590;23;20229;-80
2022/02/23 02:12:33;;;;;;;3.70;2.20;;;7.30;77.60;;;6.54;63.14;94854.91;6129995;23;20176;-80
2022/02/23 02:15:02;;;;;;;6.63;2.42;;;7.30;77.90;;;6.59;63.66;94856.19;6105581;23;20207;-81
2022/02/23 02:17:30;;;;;;;5.53;2.08;;;7.30;78.00;;;6.55;63.57;94866.13;6129900;23;20204;-80
2022/02/23 02:19:57;;;;;;;3.40;1.95;;;7.30;78.20;;;6.59;63.56;94861.38;6154902;23;20204;-80
2022/02/23 02:22:28;;;;;;;4.25;2.20;;;7.30;78.20;;;6.60;63.37;94866.44;6153625;23;20495;-80
2022/02/23 02:24:56;;;;;;;5.65;1.77;;;7.30;78.20;;;6.62;63.68;94881.91;6129884;23;20268;-80
2022/02/23 02:27:24;;;;;;;3.08;2.00;;;7.30;78.40;;;6.62;63.72;94866.28;6129934;23;20490;-80
2022/02/23 02:29:51;;;;;;;2.65;2.17;;;7.30;78.40;;;6.60;64.04;94876.84;6153877;23;20277;-80
2022/02/23 02:32:18;;;;;;;3.90;1.90;;;7.30;78.80;;;6.59;63.96;94864.00;6105435;23;20542;-79
2022/02/23 02:34:47;;;;;;;6.88;2.10;;;7.30;78.50;;;6.61;64.01;94873.28;6130009;23;20209;-80
2022/02/23 02:37:16;;;;;;;4.35;2.10;;;7.30;78.70;;;6.60;64.25;94876.06;6129670;23;20178;-80
2022/02/23 02:39:43;;;;;;;3.00;1.73;;;7.30;78.60;;;6.61;64.20;94870.66;6081760;23;20280;-80
2022/02/23 02:42:11;;;;;;;3.13;1.60;;;7.30;78.40;;;6.61;64.10;94881.09;6081733;23;20208;-79
2022/02/23 02:44:38;;;;;;;2.95;1.55;;;7.30;78.60;;;6.61;64.07;94886.31;6105330;23;20206;-79
2022/02/23 02:47:05;;;;;;;3.35;1.60;;;7.30;78.60;;;6.62;63.74;94874.91;6129673;23;20169;-79
2022/02/23 02:49:33;;;;;;;3.75;1.60;;;7.30;78.70;;;6.61;64.10;94880.28;6105341;23;20529;-80
2022/02/23 02:52:00;;;;;;;4.60;1.70;;;7.30;78.50;;;6.63;63.70;94886.97;6105171;23;20187;-80
2022/02/23 02:54:27;;;;;;;2.60;1.60;;;7.30;78.50;;;6.64;63.65;94893.78;6128526;23;20225;-79
2022/02/23 02:56:59;;;;;;;1.55;1.30;;;7.30;78.40;;;6.62;64.01;94894.94;6130637;23;20184;-80
2022/02/23 02:59:27;;;;;;;1.20;1.10;;;7.30;78.60;;;6.55;64.43;94895.63;6105820;23;20644;-80
2022/02/23 03:01:54;;;;;;;2.55;1.65;;;7.30;78.60;;;6.57;64.46;94895.44;6105714;23;20232;-80
2022/02/23 03:04:21;;;;;;;1.27;1.13;;;7.30;79.30;;;6.57;64.22;94908.47;6104594;23;20525;-80
2022/02/23 03:06:48;;;;;;;1.38;1.20;;;7.30;78.90;;;6.54;64.43;94901.81;6129438;23;20177;-80
2022/02/23 03:09:15;;;;;;;1.75;1.10;;;7.30;78.70;;;6.52;64.61;94901.16;6104267;23;20166;-80
2022/02/23 03:11:43;;;;;;;1.20;1.08;;;7.30;78.70;;;6.53;64.66;94913.22;6103675;23;20181;-81
2022/02/23 03:14:10;;;;;;;1.52;1.20;;;7.30;78.70;;;6.53;64.19;94905.38;6152372;23;20179;-81
2022/02/23 03:16:37;;;;;;;1.48;1.17;;;7.30;78.60;;;6.54;63.98;94903.59;6103695;23;20553;-81
2022/02/23 03:19:05;;;;;;;1.15;1.10;;;7.30;78.70;;;6.53;64.30;94910.59;6103526;23;20521;-80
2022/02/23 03:21:33;;;;;;;1.30;1.20;;;7.30;78.60;;;6.56;64.25;94915.47;6104106;23;20228;-80
2022/02/23 03:24:03;;;;;;;1.08;0.98;;;7.30;78.70;;;6.56;64.04;94925.88;6103183;23;20236;-79
2022/02/23 03:26:31;;;;;;;1.55;1.13;;;7.30;78.80;;;6.55;63.96;94919.06;6128227;23;20174;-79
2022/02/23 03:29:00;;;;;;;1.20;1.10;;;7.30;78.60;;;6.54;64.06;94920.03;6104632;23;20170;-81
2022/02/23 03:31:27;;;;;;;1.35;1.25;;;7.30;78.80;;;6.57;64.22;94924.09;6103462;23;20173;-80
2022/02/23 03:33:54;;;;;;;1.15;1.00;;;7.20;78.70;;;6.50;64.32;94918.72;6128052;23;20185;-80
2022/02/23 03:36:21;;;;;;;1.30;1.10;;;7.30;78.70;;;6.56;64.11;94941.53;6128041;23;20297;-80
2022/02/23 03:38:49;;;;;;;1.00;1.00;;;7.30;78.60;;;6.52;64.31;94936.84;6103781;23;20570;-80
2022/02/23 03:41:16;;;;;;;2.30;1.20;;;7.30;78.70;;;6.57;64.09;94937.13;6103344;23;20207;-80
2022/02/23 03:43:44;;;;;;;1.55;1.20;;;7.30;78.70;;;6.57;64.07;94935.34;6079518;23;20706;-79
2022/02/23 03:46:11;;;;;;;1.00;1.00;;;7.30;78.70;;;6.61;64.00;94950.66;6103641;23;20735;-80
2022/02/23 03:48:39;;;;;;;2.20;1.00;;;7.30;78.60;;;6.59;64.04;94947.38;6152229;23;20162;-79
2022/02/23 03:51:08;;;;;;;1.08;1.02;;;7.30;78.60;;;6.55;64.21;94939.91;6128138;23;20668;-80
2022/02/23 03:53:35;;;;;;;1.63;1.52;;;7.30;78.70;;;6.53;64.12;94939.25;6128167;23;20208;-81
2022/02/23 03:56:03;;;;;;;1.10;1.00;;;7.30;78.70;;;6.52;64.10;94950.66;6152348;23;20201;-81
2022/02/23 03:58:30;;;;;;;1.15;1.13;;;7.30;78.70;;;6.61;63.86;94963.69;6127987;23;20175;-80
2022/02/23 04:00:57;;;;;;;1.05;0.98;;;7.30;78.70;;;6.63;64.03;94967.75;6127347;23;20201;-80
2022/02/23 04:03:25;;;;;;;1.00;1.00;;;7.30;78.80;;;6.63;64.19;94974.72;6126892;23;20715;-80
2022/02/23 04:05:52;;;;;;;0.90;0.90;;;7.30;78.70;;;6.64;64.41;94976.38;6103376;23;20504;-81
2022/02/23 04:08:19;;;;;;;1.33;1.00;;;7.40;78.90;;;6.59;64.24;94978.66;6049272;23;1305226;-80
2022/02/23 04:10:46;;;;;;;1.00;1.00;;;7.40;78.90;;;6.65;64.07;94984.03;6128483;23;20281;-80
2022/02/23 04:13:14;;;;;;;0.98;0.98;;;7.40;79.00;;;6.69;64.19;95000.16;6104925;23;20184;-81
2022/02/23 04:15:41;;;;;;;1.40;0.80;;;7.40;78.80;;;6.69;63.95;95006.19;6129491;23;20644;-81
2022/02/23 04:18:08;;;;;;;1.05;0.90;;;7.40;78.90;;;6.68;64.43;95011.56;6129323;23;20681;-80
2022/02/23 04:20:36;;;;;;;0.93;0.93;;;7.40;78.90;;;6.71;63.85;95014.66;6104488;23;20197;-79
2022/02/23 04:23:03;;;;;;;1.38;1.10;;;7.40;79.00;;;6.69;64.57;95003.56;6104540;23;20173;-81
2022/02/23 04:25:30;;;;;;;0.80;0.80;;;7.40;79.70;;;6.67;64.19;95002.91;6129020;23;20256;-80
2022/02/23 04:27:57;;;;;;;1.77;0.90;;;7.40;78.80;;;6.73;64.41;95017.88;6104372;23;20224;-81
2022/02/23 04:30:25;;;;;;;1.10;0.90;;;7.50;78.90;;;6.75;64.29;95019.53;6103908;23;20260;-81
2022/02/23 04:32:52;;;;;;;1.20;0.90;;;7.50;78.80;;;6.76;64.57;95035.00;6152713;23;20557;-80
2022/02/23 04:35:20;;;;;;;0.82;0.82;;;7.50;78.80;;;6.78;64.54;95032.25;6104641;23;20247;-79
2022/02/23 04:37:47;;;;;;;0.80;0.80;;;7.50;78.80;;;6.75;64.55;95024.72;6104753;23;20204;-81
2022/02/23 04:40:15;;;;;;;0.90;0.90;;;7.60;79.00;;;6.81;64.67;95042.31;6104466;23;20193;-81
2022/02/23 04:42:42;;;;;;;0.90;0.90;;;7.50;78.70;;;6.80;64.64;95041.53;6104108;23;20201;-81
2022/02/23 04:45:10;;;;;;;0.90;0.90;;;7.50;78.70;;;6.81;64.63;95045.75;6128940;23;20213;-80
2022/02/23 04:47:37;;;;;;;0.90;0.90;;;7.60;78.70;;;6.83;64.67;95042.97;6128407;23;20609;-81
2022/02/23 04:50:04;;;;;;;0.90;0.90;;;7.60;78.70;;;6.73;64.74;95038.75;6103573;23;20601;-80
2022/02/23 04:52:32;;;;;;;0.90;0.90;;;7.60;78.80;;;6.85;64.62;95054.06;6153152;23;20170;-80
2022/02/23 04:54:59;;;;;;;0.75;0.75;;;7.60;79.00;;;6.88;64.56;95064.97;6128963;23;20248;-80
2022/02/23 04:57:26;;;;;;;2.58;1.00;;;7.60;79.00;;;6.86;64.44;95048.69;6103976;23;20256;-82
2022/02/23 04:59:54;;;;;;;0.90;0.90;;;7.60;79.10;;;6.86;64.63;95068.69;6127984;23;20185;-80
2022/02/23 05:02:21;;;;;;;0.82;0.82;;;7.60;79.20;;;6.84;64.41;95065.47;6128402;23;20617;-82
2022/02/23 05:04:48;;;;;;;0.80;0.80;;;7.60;79.10;;;6.86;64.36;95066.94;6104171;23;20217;-81
2022/02/23 05:07:16;;;;;;;1.00;0.90;;;7.60;79.10;;;6.82;64.28;95076.06;6128068;23;20208;-80
2022/02/23 05:09:43;;;;;;;1.15;1.00;;;7.50;79.00;;;6.76;64.31;95071.47;6104517;23;20197;-80
2022/02/23 05:12:10;;;;;;;0.95;0.90;;;7.60;78.90;;;6.72;64.36;95078.00;6128959;23;20170;-81
2022/02/23 05:14:38;;;;;;;1.00;1.00;;;7.50;79.10;;;6.75;64.45;95077.69;6104595;23;20275;-80
2022/02/23 05:17:05;;;;;;;2.60;0.90;;;7.50;78.90;;;6.72;64.48;95097.06;6128258;23;20170;-80
2022/02/23 05:19:34;;;;;;;1.67;1.10;;;7.50;79.00;;;6.75;64.32;95103.78;6105470;23;20722;-80
2022/02/23 05:22:05;;;;;;;0.80;0.80;;;7.50;79.00;;;6.75;64.32;95101.16;6130028;23;20169;-80
2022/02/23 05:24:33;;;;;;;1.08;1.08;;;7.50;79.00;;;6.75;64.32;95108.97;6129939;23;20667;-80
2022/02/23 05:27:05;;;;;;;1.00;1.00;;;7.50;79.00;;;6.70;64.39;95116.44;6106896;23;20205;-81
2022/02/23 05:29:32;;;;;;;1.30;1.20;;;7.50;78.90;;;6.69;64.10;95126.06;6105869;23;20509;-80
2022/02/23 05:32:00;;;;;;;1.45;1.27;;;7.40;78.60;;;6.67;64.19;95132.44;6105967;23;20573;-80
2022/02/23 05:34:27;;;;;;;3.85;1.20;;;7.40;78.70;;;6.63;64.17;95146.75;6130459;23;20284;-80
2022/02/23 05:36:54;;;;;;;1.30;1.20;;;7.40;78.70;;;6.61;64.39;95146.13;6106786;23;20169;-81
2022/02/23 05:39:22;;;;;;;2.28;1.60;;;7.40;78.90;;;6.55;64.44;95152.78;6105813;23;20280;-80
2022/02/23 05:41:49;;;;;;;1.92;1.30;;;7.30;78.70;;;6.53;64.31;95172.97;6105231;23;20258;-80
2022/02/23 05:44:17;;;;;;;1.98;1.50;;;7.20;78.60;;;6.52;64.37;95182.56;6130006;23;20200;-80
2022/02/23 05:46:44;;;;;;;1.80;1.45;;;7.20;78.60;;;6.50;63.94;95199.34;6106113;23;20182;-81
2022/02/23 05:49:12;;;;;;;4.70;1.80;;;7.20;78.40;;;6.48;63.88;95204.72;6106170;23;20227;-81
2022/02/23 05:51:42;;;;;;;2.03;1.20;;;7.10;78.40;;;6.44;64.03;95200.78;6105918;23;20190;-81
2022/02/23 05:54:11;;;;;;;2.03;1.38;;;7.10;78.40;;;6.40;63.67;95215.91;6131258;23;20172;-81
2022/02/23 05:56:38;;;;;;;1.98;1.42;;;7.10;78.30;;;6.47;63.92;95241.34;6130205;23;20193;-81
2022/02/23 05:59:06;;;;;;;1.88;1.40;;;7.10;78.30;;;6.47;63.50;95252.59;6105097;23;20169;-80
2022/02/23 06:01:34;;;;;;;1.98;1.30;;;7.20;78.30;;;6.46;63.33;95257.94;6129902;23;20181;-80
2022/02/23 06:04:02;;;;;;;3.10;1.40;;;7.00;77.50;;;6.43;63.00;95272.09;6081948;23;20209;-81
2022/02/23 06:06:29;;;;;;;1.95;1.30;;;7.00;77.00;;;6.40;62.99;95277.66;6130048;23;20182;-81
2022/02/23 06:08:56;;;;;;;2.28;1.33;;;7.00;77.50;;;6.34;63.07;95286.09;6129910;23;20181;-81
2022/02/23 06:11:27;;;;;;;2.85;1.58;;;7.00;77.40;;;6.34;62.48;95289.50;6106142;23;20197;-80
2022/02/23 06:13:54;;;;;;;3.63;1.20;;;7.00;77.20;;;6.24;63.04;95294.03;6106113;23;20192;-80
2022/02/23 06:16:23;;;;;;;2.17;1.40;;;7.00;77.00;;;6.21;62.63;95300.38;6130288;23;20193;-79
2022/02/23 06:18:51;;;;;;;2.28;1.38;;;6.90;76.90;;;6.15;62.32;95319.22;6153470;23;20172;-79
2022/02/23 06:21:19;;;;;;;2.63;1.30;;;6.90;77.00;;;6.06;62.23;95318.31;6105302;23;20252;-80
2022/02/23 06:23:46;;;;;;;1.30;1.20;;;6.90;77.00;;;6.00;62.39;95323.34;6130066;23;20232;-80
2022/02/23 06:26:13;;;;;;;3.35;1.30;;;6.80;76.70;;;5.89;62.67;95334.78;6105430;23;20192;-80
2022/02/23 06:28:41;;;;;;;2.35;1.40;;;6.80;76.90;;;5.85;62.46;95333.47;6129646;23;20248;-78
2022/02/23 06:31:09;;;;;;;3.10;1.30;;;6.70;76.80;;;5.79;62.39;95341.88;6129694;23;20509;-79
2022/02/23 06:33:42;;;;;;;1.88;1.50;;;6.70;76.90;;;5.69;62.56;95332.38;6105582;23;20213;-80
2022/02/23 06:36:11;;;;;;;3.28;1.50;;;6.60;76.90;;;5.69;62.45;95348.00;6105210;23;20200;-79
2022/02/23 06:38:41;;;;;;;3.35;1.25;;;6.60;76.80;;;5.66;62.94;95363.09;6080773;23;20272;-79
2022/02/23 06:41:15;;;;;;;1.95;1.33;;;6.50;76.90;;;5.57;62.64;95359.59;6105700;23;20201;-80
2022/02/23 06:43:47;;;;;;;8.77;1.90;;;6.50;76.90;;;5.60;62.93;95367.94;6105368;23;20693;-79
2022/02/23 06:46:15;;;;;;;4.05;1.30;;;6.40;77.00;;;5.59;62.99;95368.06;6129236;23;20196;-80
2022/02/23 06:48:50;;;;;;;5.18;1.38;;;6.40;77.00;;;5.58;62.96;95369.03;6130624;23;20216;-79
2022/02/23 06:51:20;;;;;;;5.68;1.70;;;6.40;77.10;;;5.54;62.74;95380.69;6129350;23;20197;-80
2022/02/23 06:53:49;;;;;;;5.15;1.45;;;6.30;76.90;;;5.58;62.91;95389.88;6106315;23;20609;-80
2022/02/23 06:56:17;;;;;;;2.35;1.30;;;6.30;77.00;;;5.60;62.50;95382.72;6129337;23;20236;-80
2022/02/23 06:58:48;;;;;;;2.20;1.60;;;6.30;76.90;;;5.61;62.59;95390.38;6105130;23;20165;-79
2022/02/23 07:01:19;;;;;;;1.88;1.40;;;6.30;76.90;;;5.63;62.47;95392.81;6129198;23;20193;-80
2022/02/23 07:03:48;;;;;;;5.05;2.00;;;6.30;76.80;;;5.65;62.36;95397.88;6105487;23;20181;-80
2022/02/23 07:06:16;;;;;;;3.60;1.70;;;6.30;76.50;;;5.69;61.96;95414.81;6129371;23;20582;-80
2022/02/23 07:08:49;;;;;;;6.25;1.80;;;6.30;76.50;;;5.70;61.98;95421.66;6129209;23;20804;-80
2022/02/23 07:11:18;;;;;;;6.00;1.50;;;6.30;76.20;;;5.74;61.49;95438.63;6104833;23;20239;-78
2022/02/23 07:13:46;;;;;;;3.90;1.60;;;6.30;76.00;;;5.79;61.89;95439.00;6129411;23;20252;-78
2022/02/23 07:16:15;;;;;;;2.95;1.60;;;6.30;76.20;;;5.82;61.37;95437.88;6129559;23;20236;-78
2022/02/23 07:18:42;;;;;;;3.30;1.50;;;6.30;76.20;;;5.87;61.81;95438.25;6105059;23;20166;-78
2022/02/23 07:21:09;;;;;;;7.40;1.52;;;6.40;75.60;;;5.83;61.51;95444.72;6153691;23;20282;-78
2022/02/23 07:23:38;;;;;;;4.55;1.55;;;6.40;76.10;;;5.92;61.77;95454.25;6105254;23;20170;-79
2022/02/23 07:26:05;;;;;;;5.10;1.60;;;6.40;75.70;;;6.03;61.27;95476.66;6129587;23;20301;-78
2022/02/23 07:28:33;;;;;;;7.18;1.70;;;6.40;75.80;;;6.13;61.68;95482.63;6104399;23;20169;-82
2022/02/23 07:31:15;;;;;;;4.80;1.70;;;6.50;76.20;;;6.29;61.44;95481.13;6106853;23;20200;-81
2022/02/23 07:33:42;;;;;;;3.60;1.58;;;6.60;76.30;;;6.40;61.24;95489.50;6129335;23;20173;-81
2022/02/23 07:36:10;;;;;;;3.60;1.30;;;6.60;76.20;;;6.53;60.29;95493.50;6129034;23;20418;-81
2022/02/23 07:38:41;;;;;;;5.88;1.75;;;6.70;75.40;;;6.68;60.58;95499.81;6130030;23;20166;-82
2022/02/23 07:41:11;;;;;;;7.38;2.75;;;6.80;75.50;;;6.77;60.72;95505.06;6105162;23;20220;-82
2022/02/23 07:43:58;;;;;;;3.80;1.60;;;6.90;75.80;;;6.77;60.78;95505.06;6109466;23;20265;-81
2022/02/23 07:46:28;;;;;;;6.38;1.65;;;7.10;75.70;;;6.81;60.20;95501.19;6105166;23;20177;-82
2022/02/23 07:49:00;;;;;;;7.22;1.85;;;7.10;75.40;;;7.01;60.30;95533.09;6105290;23;20177;-82
2022/02/23 07:51:31;;;;;;;3.42;1.50;;;7.20;74.60;;;7.08;59.69;95534.13;6129732;23;20178;-81
2022/02/23 07:53:59;;;;;;;7.43;1.70;;;7.30;75.20;;;7.12;60.28;95532.00;6105066;23;20177;-82
2022/02/23 07:56:26;;;;;;;3.92;1.80;;;7.40;75.50;;;7.18;60.09;95536.63;6104508;23;20177;-82
2022/02/23 07:58:54;;;;;;;3.78;1.60;;;7.50;75.60;;;7.25;60.17;95555.06;6104421;23;20520;-79
2022/02/23 08:01:27;;;;;;;3.75;1.70;;;7.60;75.60;;;7.27;59.32;95550.50;6154114;23;20584;-80
2022/02/23 08:03:55;;;;;;;2.92;1.65;;;7.60;73.30;;;7.32;58.99;95563.91;6128686;23;20180;-78
2022/02/23 08:06:22;;;;;;;4.22;1.85;;;7.60;74.30;;;7.30;59.36;95560.63;6104742;23;20201;-79
2022/02/23 08:08:49;;;;;;;5.63;1.90;;;7.60;74.40;;;7.34;58.88;95577.63;6104467;23;20181;-78
2022/02/23 08:11:18;;;;;;;6.75;1.95;;;7.70;74.30;;;7.37;59.27;95572.06;6129172;23;20284;-79
2022/02/23 08:13:48;;;;;;;4.55;1.75;;;7.60;73.90;;;7.40;58.83;95566.56;6104471;23;20502;-79
2022/02/23 08:21:55;;;;;;;5.25;1.75;;;7.80;74.30;;;7.50;59.06;95575.09;6132691;23;20162;-79
2022/02/23 08:24:22;;;;;;;4.72;2.13;;;7.80;74.30;;;7.55;59.00;95585.06;6152974;23;20559;-79
2022/02/23 08:26:58;;;;;;;6.50;2.40;;;7.80;74.30;;;7.55;57.82;95582.44;6106023;23;20612;-80
2022/02/23 08:29:25;;;;;;;3.55;1.65;;;7.80;71.30;;;7.56;57.43;95596.34;6080334;23;20218;-79
2022/02/23 08:31:54;;;;;;;6.25;1.90;;;7.80;73.10;;;7.59;58.36;95580.34;6129424;23;20220;-81
2022/02/23 08:34:21;;;;;;;4.80;1.80;;;7.80;73.00;;;7.60;58.16;95592.44;6104559;23;20268;-80
2022/02/23 08:36:49;;;;;;;4.85;1.70;;;7.80;73.00;;;7.64;58.68;95584.13;6104143;23;20189;-80
2022/02/23 08:39:17;;;;;;;5.97;1.85;;;7.90;74.40;;;7.82;58.24;95599.72;6104193;23;20513;-79
2022/02/23 08:41:45;;;;;;;5.40;1.80;;;8.00;74.50;;;7.95;57.90;95598.44;6128639;23;20647;-80
2022/02/23 08:44:20;;;;;;;3.80;1.70;;;8.00;73.20;;;8.04;57.99;95613.16;6105718;23;20177;-79
2022/02/23 08:46:48;;;;;;;6.95;2.10;;;8.10;73.60;;;8.06;57.51;95605.97;6127794;23;20495;-80
2022/02/23 08:49:16;;;;;;;6.68;1.92;;;8.20;73.50;;;8.11;57.26;95606.31;6128385;23;20178;-80
2022/02/23 08:51:46;;;;;;;6.05;1.95;;;8.30;73.10;;;8.14;56.57;95626.91;6128250;23;20493;-80
2022/02/23 08:54:16;;;;;;;6.97;1.80;;;8.30;72.20;;;8.17;57.44;95623.16;6104813;23;20200;-80
2022/02/23 08:56:45;;;;;;;5.63;1.60;;;8.30;73.40;;;8.23;57.30;95642.63;6128017;23;20244;-80
2022/02/23 08:59:13;;;;;;;5.82;1.90;;;8.40;73.20;;;8.30;56.81;95630.53;6127533;23;20225;-79
2022/02/23 09:01:42;;;;;;;10.30;2.33;;;8.40;73.00;;;8.35;56.42;95649.19;6128562;23;20175;-83
2022/02/23 09:04:10;;;;;;;3.13;1.67;;;8.40;71.50;;;8.27;56.11;95615.19;6128063;23;20597;-81
2022/02/23 09:06:41;;;;;;;4.82;1.80;;;8.50;72.20;;;8.32;56.55;95626.81;6104207;23;20204;-82
2022/02/23 09:09:13;;;;;;;5.80;1.88;;;8.50;71.80;;;8.38;56.04;95632.38;6105264;23;20177;-82
2022/02/23 09:11:46;;;;;;;4.32;1.83;;;8.60;71.90;;;8.34;55.72;95626.66;6128901;23;20192;-84
2022/02/23 09:14:15;;;;;;;6.82;2.03;;;8.60;71.60;;;8.42;56.17;95628.44;6104177;23;20177;-84
2022/02/23 09:16:44;;;;;;;10.68;1.90;;;8.60;71.70;;;8.44;55.37;95644.81;6128657;23;20177;-84
2022/02/23 09:19:11;;;;;;;4.65;1.88;;;8.60;70.90;;;8.49;55.90;95639.94;6104477;23;20252;-83
2022/02/23 09:21:39;;;;;;;8.50;2.13;;;8.60;71.80;;;8.53;56.04;95653.50;6079998;23;20204;-83
2022/02/23 09:24:07;;;;;;;7.22;2.40;;;8.70;72.00;;;8.50;55.11;95636.34;6128032;23;20256;-83
2022/02/23 09:26:34;;;;;;;7.57;2.00;;;8.70;70.70;;;8.61;54.74;95637.84;6103862;23;20201;-82
2022/02/23 09:29:06;;;;;;;8.93;2.38;;;8.70;70.70;;;8.70;55.57;95636.03;6104899;23;20182;-83
2022/02/23 09:31:36;;;;;;;8.60;1.98;;;8.70;71.40;;;8.71;56.54;95630.63;6104954;23;20189;-82
2022/02/23 09:34:06;;;;;;;5.47;2.40;;;8.80;72.40;;;8.90;56.60;95636.53;6104899;23;20231;-84
2022/02/23 09:36:38;;;;;;;6.70;2.35;;;8.90;71.50;;;8.97;58.18;95634.91;6128858;23;20173;-83
2022/02/23 09:39:09;;;;;;;7.93;2.35;;;9.00;73.50;;;8.99;58.07;95646.03;6128428;23;20178;-83
2022/02/23 09:41:39;;;;;;;9.10;2.05;;;9.10;72.90;;;8.98;58.28;95644.38;6104644;23;20182;-83
2022/02/23 09:44:10;;;;;;;5.80;2.55;;;9.10;73.20;;;9.01;58.96;95645.84;6104610;23;20252;-83
2022/02/23 09:46:38;;;;;;;7.63;2.30;;;9.20;73.50;;;8.98;59.46;95649.63;6128796;23;20193;-82
2022/02/23 09:49:05;;;;;;;6.45;2.10;;;9.20;73.90;;;9.01;58.56;95644.06;6128011;23;20238;-83
2022/02/23 09:51:33;;;;;;;8.07;2.08;;;9.20;73.10;;;9.03;58.05;95657.78;6104773;23;20165;-83
2022/02/23 09:54:02;;;;;;;6.07;2.35;;;9.20;72.20;;;9.10;59.22;95664.00;6128773;23;20703;-81
2022/02/23 09:56:32;;;;;;;4.53;1.88;;;9.30;74.00;;;9.13;58.61;95657.66;6103654;23;20609;-83
2022/02/23 09:59:00;;;;;;;8.00;2.25;;;9.40;73.40;;;9.28;58.94;95674.31;6103755;23;20208;-83
2022/02/23 10:01:29;;;;;;;7.10;2.22;;;9.40;74.00;;;9.35;59.06;95657.94;6128970;23;20184;-84
2022/02/23 10:03:56;;;;;;;6.70;2.72;;;9.50;74.00;;;9.36;59.48;95670.06;6104982;23;20231;-83
2022/02/23 10:06:28;;;;;;;8.35;2.53;;;9.60;74.30;;;9.39;58.73;95670.53;6129378;23;20229;-83
2022/02/23 10:09:23;;;;;;;7.75;2.38;;;9.60;73.60;;;9.41;58.61;95662.53;6105812;23;20630;-83
2022/02/23 10:11:52;;;;;;;7.85;2.13;;;9.60;72.80;;;9.40;58.95;95658.28;6103969;23;20181;-84
2022/02/23 10:14:19;;;;;;;7.30;1.95;;;9.70;73.20;;;9.45;58.47;95669.06;6129215;23;20208;-83
2022/02/23 10:16:50;;;;;;;5.30;2.10;;;9.70;73.40;;;9.49;58.54;95667.75;6130832;23;20178;-83
2022/02/23 10:19:23;;;;;;;6.30;2.25;;;9.80;73.50;;;9.51;58.51;95663.16;6130140;23;20248;-83
2022/02/23 10:21:57;;;;;;;7.20;2.15;;;9.80;73.30;;;9.48;58.44;95655.63;6105564;23;20208;-83
2022/02/23 10:24:31;;;;;;;5.75;2.08;;;9.80;73.40;;;9.54;58.73;95652.34;6130550;23;20189;-84
2022/02/23 10:27:09;;;;;;;5.43;2.20;;;9.80;73.40;;;9.53;58.11;95666.44;6105665;23;20197;-83
2022/02/23 10:29:46;;;;;;;5.65;2.10;;;9.80;72.20;;;9.59;58.24;95662.31;6126278;23;20197;-83
2022/02/23 10:32:17;;;;;;;8.43;2.60;;;9.80;73.30;;;9.52;57.24;95696.25;6105515;23;20211;-83
2022/02/23 10:34:47;;;;;;;6.93;2.67;;;9.80;73.60;;;9.47;57.02;95671.53;6128982;23;20201;-82
2022/02/23 10:37:24;;;;;;;6.93;2.03;;;9.80;71.90;;;9.38;57.03;95655.81;6105500;23;20181;-82
2022/02/23 10:40:00;;;;;;;5.25;1.98;;;9.80;72.20;;;9.34;57.32;95659.75;6129894;23;20190;-83
2022/02/23 10:42:34;;;;;;;12.15;2.47;;;9.80;71.40;;;9.33;57.46;95659.94;6105200;23;20272;-82
2022/02/23 10:45:04;;;;;;;4.55;2.00;;;9.80;72.30;;;9.29;57.75;95656.81;6105497;23;20236;-83